createdAt,value
2022-12-08T00:00:10.348Z,8.70
2022-12-08T00:02:40.917Z,7.60
2022-12-08T00:05:31.951Z,7.43
2022-12-08T00:08:21.628Z,7.10
2022-12-08T00:10:51.317Z,6.25
2022-12-08T00:13:20.863Z,6.22
2022-12-08T00:15:50.510Z,6.65
2022-12-08T00:18:20.080Z,6.22
2022-12-08T00:20:56.588Z,6.30
2022-12-08T00:23:26.267Z,6.20
2022-12-08T00:25:56.121Z,6.10
2022-12-08T00:28:25.788Z,6.32
2022-12-08T00:30:55.378Z,6.97
2022-12-08T00:33:25.022Z,7.22
2022-12-08T00:35:54.611Z,7.30
2022-12-08T00:38:24.183Z,7.68
2022-12-08T00:40:53.711Z,7.32
2022-12-08T00:43:23.314Z,7.50
2022-12-08T00:45:52.925Z,7.25
2022-12-08T00:48:22.502Z,6.32
2022-12-08T00:50:52.200Z,6.70
2022-12-08T00:53:21.746Z,6.93
2022-12-08T00:55:51.321Z,6.60
2022-12-08T00:58:20.884Z,6.32
2022-12-08T01:00:50.923Z,6.95
2022-12-08T01:03:21.666Z,8.52
2022-12-08T01:05:51.711Z,6.85
2022-12-08T01:08:22.003Z,6.97
2022-12-08T01:10:52.003Z,7.93
2022-12-08T01:13:21.924Z,7.57
2022-12-08T01:15:51.792Z,9.02
2022-12-08T01:18:21.700Z,9.68
2022-12-08T01:20:51.661Z,10.10
2022-12-08T01:23:21.546Z,11.13
2022-12-08T01:25:51.340Z,12.05
2022-12-08T01:28:21.211Z,12.88
2022-12-08T01:30:51.090Z,12.73
2022-12-08T01:33:21.027Z,13.63
2022-12-08T01:35:50.992Z,13.27
2022-12-08T01:38:20.863Z,12.88
2022-12-08T01:40:51.102Z,14.07
2022-12-08T01:43:23.167Z,13.30
2022-12-08T01:45:53.514Z,12.77
2022-12-08T01:48:29.549Z,12.85
2022-12-08T01:50:59.856Z,13.18
2022-12-08T01:53:37.429Z,11.60
2022-12-08T01:56:17.578Z,11.93
2022-12-08T01:58:53.203Z,13.27
2022-12-08T02:01:23.183Z,13.05
2022-12-08T02:04:04.933Z,12.35
2022-12-08T02:06:41.850Z,12.70
2022-12-08T02:09:11.981Z,11.60
2022-12-08T02:11:41.882Z,11.20
2022-12-08T02:14:13.512Z,11.00
2022-12-08T02:17:07.959Z,10.70
2022-12-08T02:20:16.669Z,10.77
2022-12-08T02:23:25.390Z,10.13
2022-12-08T02:26:34.030Z,9.25
2022-12-08T02:29:35.033Z,10.32
2022-12-08T02:32:43.736Z,9.55
2022-12-08T02:35:29.319Z,9.70
2022-12-08T02:38:09.162Z,9.38
2022-12-08T02:41:02.505Z,8.63
2022-12-08T02:43:54.759Z,8.25
2022-12-08T02:46:30.432Z,8.50
2022-12-08T02:49:01.253Z,7.93
2022-12-08T02:51:31.161Z,6.95
2022-12-08T02:54:02.118Z,7.30
2022-12-08T02:57:02.427Z,6.28
2022-12-08T03:00:03.542Z,6.05
2022-12-08T03:03:10.102Z,6.43
2022-12-08T03:06:12.230Z,7.25
2022-12-08T03:09:12.671Z,6.72
2022-12-08T03:11:56.126Z,6.38
2022-12-08T03:14:26.896Z,5.82
2022-12-08T03:16:59.914Z,5.90
2022-12-08T03:19:40.081Z,6.40
2022-12-08T03:22:11.061Z,5.75
2022-12-08T03:24:43.796Z,5.57
2022-12-08T03:27:26.834Z,5.88
2022-12-08T03:29:58.498Z,5.80
2022-12-08T03:32:57.140Z,5.63
2022-12-08T03:35:30.433Z,4.60
2022-12-08T03:38:12.564Z,4.72
2022-12-08T03:40:43.198Z,4.95
2022-12-08T03:43:13.460Z,4.30
2022-12-08T03:45:43.389Z,4.30
2022-12-08T03:48:13.324Z,4.15
2022-12-08T03:50:43.143Z,4.05
2022-12-08T03:53:13.055Z,3.85
2022-12-08T03:55:42.992Z,4.25
2022-12-08T03:58:12.922Z,3.92
2022-12-08T04:00:42.832Z,4.15
2022-12-08T04:03:12.492Z,3.90
2022-12-08T04:05:42.041Z,3.85
2022-12-08T04:08:11.684Z,3.60
2022-12-08T04:10:41.384Z,3.40
2022-12-08T04:13:11.152Z,3.40
2022-12-08T04:15:40.802Z,3.80
2022-12-08T04:18:10.473Z,3.80
2022-12-08T04:20:47.912Z,3.72
2022-12-08T04:23:17.763Z,3.50
2022-12-08T04:25:47.412Z,3.33
2022-12-08T04:28:17.027Z,3.80
2022-12-08T04:30:46.790Z,3.08
2022-12-08T04:33:16.296Z,3.35
2022-12-08T04:35:46.283Z,3.50
2022-12-08T04:38:16.214Z,2.78
2022-12-08T04:40:46.092Z,3.60
2022-12-08T04:43:15.991Z,3.40
2022-12-08T04:45:46.006Z,3.13
2022-12-08T04:48:16.121Z,2.72
2022-12-08T04:50:47.470Z,3.17
2022-12-08T04:53:17.519Z,2.90
2022-12-08T04:55:50.308Z,2.75
2022-12-08T04:58:21.713Z,2.78
2022-12-08T05:00:51.985Z,2.47
2022-12-08T05:03:28.332Z,2.35
2022-12-08T05:06:01.200Z,2.95
2022-12-08T05:08:31.653Z,2.33
2022-12-08T05:11:07.951Z,3.03
2022-12-08T05:13:38.466Z,2.97
2022-12-08T05:16:13.691Z,2.30
2022-12-08T05:18:44.965Z,2.40
2022-12-08T05:21:14.969Z,2.67
2022-12-08T05:23:44.861Z,2.72
2022-12-08T05:26:14.802Z,2.70
2022-12-08T05:28:44.700Z,2.85
2022-12-08T05:31:19.475Z,2.65
2022-12-08T05:33:50.833Z,2.40
2022-12-08T05:36:21.638Z,2.25
2022-12-08T05:38:51.664Z,2.47
2022-12-08T05:41:23.003Z,2.20
2022-12-08T05:43:53.038Z,2.10
2022-12-08T05:46:23.013Z,2.00
2022-12-08T05:48:52.928Z,1.88
2022-12-08T05:51:25.032Z,2.20
2022-12-08T05:53:55.757Z,2.15
2022-12-08T05:56:26.291Z,2.10
2022-12-08T05:58:56.193Z,2.13
2022-12-08T06:01:29.354Z,2.00
2022-12-08T06:04:01.031Z,2.15
2022-12-08T06:06:32.294Z,1.90
2022-12-08T06:09:01.845Z,1.88
2022-12-08T06:11:34.354Z,2.30
2022-12-08T06:14:05.021Z,2.00
2022-12-08T06:16:34.684Z,1.80
2022-12-08T06:19:04.432Z,1.48
2022-12-08T06:21:33.991Z,2.25
2022-12-08T06:24:03.759Z,1.88
2022-12-08T06:26:33.316Z,2.05
2022-12-08T06:29:02.851Z,2.10
2022-12-08T06:31:32.596Z,1.83
2022-12-08T06:34:02.307Z,1.85
2022-12-08T06:36:32.202Z,1.88
2022-12-08T06:39:01.822Z,2.28
2022-12-08T06:41:31.447Z,1.95
2022-12-08T06:44:01.346Z,2.67
2022-12-08T06:46:30.989Z,2.33
2022-12-08T06:49:01.305Z,1.98
2022-12-08T06:51:30.888Z,2.20
2022-12-08T06:54:00.442Z,2.03
2022-12-08T06:56:31.778Z,2.55
2022-12-08T06:59:01.379Z,2.53
2022-12-08T07:01:31.424Z,2.03
2022-12-08T07:04:01.660Z,2.35
2022-12-08T07:06:31.538Z,2.00
2022-12-08T07:09:01.838Z,2.10
2022-12-08T07:11:31.827Z,2.00
2022-12-08T07:14:01.481Z,1.90
2022-12-08T07:16:31.347Z,2.40
2022-12-08T07:19:02.094Z,2.47
2022-12-08T07:21:31.662Z,2.03
2022-12-08T07:24:01.189Z,1.98
2022-12-08T07:26:31.152Z,2.05
2022-12-08T07:29:01.759Z,1.67
2022-12-08T07:31:31.356Z,2.03
2022-12-08T07:34:01.112Z,2.08
2022-12-08T07:36:30.784Z,2.00
2022-12-08T07:39:00.668Z,2.25
2022-12-08T07:41:30.213Z,2.35
2022-12-08T07:43:59.972Z,2.20
2022-12-08T07:46:29.770Z,2.20
2022-12-08T07:48:59.346Z,2.35
2022-12-08T07:51:28.939Z,2.25
2022-12-08T07:53:58.640Z,1.92
2022-12-08T07:56:28.279Z,2.10
2022-12-08T07:58:57.834Z,2.08
2022-12-08T08:01:30.980Z,2.03
2022-12-08T08:04:06.819Z,2.20
2022-12-08T08:06:39.533Z,2.33
2022-12-08T08:09:10.522Z,1.90
2022-12-08T08:11:40.359Z,1.75
2022-12-08T08:14:09.944Z,1.80
2022-12-08T08:16:39.918Z,2.50
2022-12-08T08:19:09.564Z,2.25
2022-12-08T08:21:46.547Z,2.15
2022-12-08T08:24:16.282Z,2.35
2022-12-08T08:26:45.805Z,2.50
2022-12-08T08:29:15.317Z,2.20
2022-12-08T08:31:44.954Z,2.60
2022-12-08T08:34:14.640Z,2.47
2022-12-08T08:36:44.491Z,2.42
2022-12-08T08:39:14.402Z,2.38
2022-12-08T08:41:44.352Z,1.98
2022-12-08T08:44:16.838Z,2.88
2022-12-08T08:46:47.259Z,2.05
2022-12-08T08:49:17.265Z,1.90
2022-12-08T08:51:48.013Z,1.83
2022-12-08T08:54:17.964Z,2.17
2022-12-08T08:56:47.784Z,1.88
2022-12-08T08:59:17.802Z,2.20
2022-12-08T09:01:47.974Z,2.08
2022-12-08T09:04:18.052Z,2.30
2022-12-08T09:06:48.122Z,2.10
2022-12-08T09:09:19.460Z,1.67
2022-12-08T09:11:49.423Z,2.30
2022-12-08T09:14:19.353Z,1.80
2022-12-08T09:16:49.557Z,2.08
2022-12-08T09:19:19.557Z,1.98
2022-12-08T09:21:49.554Z,2.03
2022-12-08T09:24:19.608Z,2.40
2022-12-08T09:26:50.105Z,1.98
2022-12-08T09:29:20.038Z,2.13
2022-12-08T09:31:50.110Z,1.92
2022-12-08T09:34:20.175Z,2.08
2022-12-08T09:36:50.337Z,2.70
2022-12-08T09:39:20.244Z,2.13
2022-12-08T09:42:13.365Z,2.28
2022-12-08T09:45:04.482Z,1.70
2022-12-08T09:47:41.224Z,1.60
2022-12-08T09:50:40.837Z,2.00
2022-12-08T09:53:18.656Z,1.80
2022-12-08T09:58:46.789Z,2.80
2022-12-08T10:01:18.299Z,2.00
2022-12-08T10:03:48.267Z,2.72
2022-12-08T10:06:35.286Z,2.45
2022-12-08T10:09:40.908Z,2.80
2022-12-08T10:12:39.496Z,2.50
2022-12-08T10:15:48.260Z,2.72
2022-12-08T10:18:22.435Z,2.08
2022-12-08T10:20:53.644Z,2.17
2022-12-08T10:23:37.033Z,2.25
2022-12-08T10:26:13.859Z,2.05
2022-12-08T10:28:45.476Z,2.20
2022-12-08T10:31:21.182Z,2.10
2022-12-08T10:34:03.429Z,2.33
2022-12-08T10:36:57.817Z,2.78
2022-12-08T10:39:47.611Z,3.20
2022-12-08T10:42:23.626Z,2.03
2022-12-08T10:45:19.828Z,3.35
2022-12-08T10:48:07.782Z,2.72
2022-12-08T10:50:44.146Z,2.45
2022-12-08T10:53:17.822Z,2.50
2022-12-08T10:55:52.032Z,2.20
2022-12-08T10:58:45.588Z,2.50
2022-12-08T11:01:28.482Z,2.20
2022-12-08T11:04:03.625Z,2.60
2022-12-08T11:06:42.265Z,2.72
2022-12-08T11:09:32.985Z,2.30
2022-12-08T11:12:15.089Z,2.22
2022-12-08T11:14:57.862Z,3.13
2022-12-08T11:17:31.340Z,4.10
2022-12-08T11:20:04.843Z,3.20
2022-12-08T11:22:48.895Z,2.78
2022-12-08T11:25:24.727Z,3.60
2022-12-08T11:27:59.254Z,4.05
2022-12-08T11:30:38.856Z,3.47
2022-12-08T11:33:23.933Z,3.92
2022-12-08T11:36:14.860Z,3.83
2022-12-08T11:38:48.099Z,3.85
2022-12-08T11:41:20.776Z,3.58
2022-12-08T11:44:25.974Z,3.80
2022-12-08T11:47:03.256Z,3.75
2022-12-08T11:49:41.401Z,4.75
2022-12-08T11:52:43.802Z,7.90
2022-12-08T11:55:52.531Z,3.63
2022-12-08T11:58:44.941Z,4.57
2022-12-08T12:01:27.921Z,5.47
2022-12-08T12:04:31.581Z,5.10
2022-12-08T12:07:33.792Z,18.15
2022-12-08T12:10:29.059Z,18.88
2022-12-08T12:13:20.797Z,20.30
2022-12-08T12:16:29.584Z,19.30
2022-12-08T12:19:07.815Z,15.70
2022-12-08T12:21:48.893Z,16.75
2022-12-08T12:24:41.034Z,16.50
2022-12-08T12:27:31.968Z,17.63
2022-12-08T12:30:08.811Z,17.02
2022-12-08T12:32:58.521Z,18.50
2022-12-08T12:35:43.345Z,19.02
2022-12-08T12:38:55.510Z,18.92
2022-12-08T12:41:30.116Z,17.77
2022-12-08T12:44:38.213Z,20.17
2022-12-08T12:47:13.591Z,17.30
2022-12-08T12:50:08.874Z,17.63
2022-12-08T12:52:43.324Z,16.00
2022-12-08T12:55:24.532Z,16.35
2022-12-08T12:57:58.651Z,14.57
2022-12-08T13:00:30.252Z,13.82
2022-12-08T13:03:03.061Z,12.75
2022-12-08T13:05:37.520Z,11.55
2022-12-08T13:08:28.556Z,10.63
2022-12-08T13:11:08.810Z,9.05
2022-12-08T13:13:57.589Z,8.63
2022-12-08T13:16:29.639Z,7.15
2022-12-08T13:19:03.928Z,7.03
2022-12-08T13:24:29.084Z,7.65
